createdAt,value
2018-09-05T00:01:14.215Z,98184.84
2018-09-05T00:03:49.356Z,98187.73
2018-09-05T00:06:19.394Z,98185.23
2018-09-05T00:14:36.173Z,98178.43
2018-09-05T00:17:07.179Z,98177.94
2018-09-05T00:19:38.317Z,98176.15
2018-09-05T00:22:14.250Z,98179.98
2018-09-05T00:24:45.577Z,98176.02
2018-09-05T00:27:15.397Z,98173.05
2018-09-05T00:29:46.789Z,98174.70
2018-09-05T00:32:18.880Z,98177.23
2018-09-05T00:34:55.039Z,98170.66
2018-09-05T00:37:25.278Z,98171.26
2018-09-05T00:39:57.110Z,98173.49
2018-09-05T00:42:41.876Z,98178.73
2018-09-05T00:45:12.852Z,98174.44
2018-09-05T00:47:50.786Z,98178.73
2018-09-05T00:50:21.649Z,98177.16
2018-09-05T00:52:52.493Z,98175.96
2018-09-05T00:55:23.137Z,98173.69
2018-09-05T00:58:04.165Z,98175.34
2018-09-05T01:00:34.456Z,98165.30
2018-09-05T01:03:06.350Z,98162.42
2018-09-05T01:05:37.378Z,98161.38
2018-09-05T01:08:12.673Z,98166.45
2018-09-05T01:10:42.862Z,98159.27
2018-09-05T01:13:13.801Z,98162.53
2018-09-05T01:15:44.333Z,98167.91
2018-09-05T01:18:17.158Z,98160.47
2018-09-05T01:20:48.174Z,98166.36
2018-09-05T01:23:21.193Z,98171.02
2018-09-05T01:25:51.141Z,98173.89
2018-09-05T01:28:20.904Z,98166.97
2018-09-05T01:30:50.584Z,98175.72
2018-09-05T01:33:20.332Z,98175.59
2018-09-05T01:35:55.213Z,98167.81
2018-09-05T01:38:25.018Z,98167.48
2018-09-05T01:40:54.670Z,98170.95
2018-09-05T01:43:25.594Z,98169.77
2018-09-05T01:45:55.856Z,98169.39
2018-09-05T01:48:27.059Z,98163.77
2018-09-05T01:50:56.916Z,98170.01
2018-09-05T01:53:28.202Z,98169.30
2018-09-05T01:56:05.205Z,98164.86
2018-09-05T01:58:35.820Z,98172.39
2018-09-05T02:01:05.938Z,98174.08
2018-09-05T02:03:36.894Z,98174.92
2018-09-05T02:06:07.838Z,98179.34
2018-09-05T02:08:37.706Z,98172.52
2018-09-05T02:11:07.915Z,98173.38
2018-09-05T02:14:26.571Z,98167.70
2018-09-05T02:16:57.262Z,98169.25
2018-09-05T02:19:29.724Z,98172.13
2018-09-05T02:22:00.027Z,98168.78
2018-09-05T02:24:35.080Z,98168.20
2018-09-05T02:27:07.176Z,98171.21
2018-09-05T02:29:41.344Z,98168.68
2018-09-05T02:32:11.077Z,98164.94
2018-09-05T02:34:47.514Z,98166.16
2018-09-05T02:37:20.678Z,98170.47
2018-09-05T02:39:52.172Z,98163.98
2018-09-05T02:42:22.413Z,98170.44
2018-09-05T02:44:53.358Z,98166.63
2018-09-05T02:47:24.289Z,98164.09
2018-09-05T02:49:53.978Z,98164.94
2018-09-05T02:52:23.661Z,98159.80
2018-09-05T02:54:55.246Z,98165.41
2018-09-05T02:57:25.686Z,98167.80
2018-09-05T03:00:00.126Z,98173.30
2018-09-05T03:02:30.324Z,98166.48
2018-09-05T03:05:01.848Z,98165.64
2018-09-05T03:07:32.161Z,98164.22
2018-09-05T03:10:06.309Z,98167.09
2018-09-05T03:12:36.838Z,98165.07
2018-09-05T03:15:07.476Z,98170.81
2018-09-05T03:17:40.425Z,98168.64
2018-09-05T03:20:20.285Z,98176.44
2018-09-05T03:22:53.101Z,98180.63
2018-09-05T03:25:24.769Z,98175.94
2018-09-05T03:33:25.951Z,98178.70
2018-09-05T03:35:59.843Z,98175.23
2018-09-05T03:38:32.473Z,98176.68
2018-09-05T03:41:11.475Z,98178.23
2018-09-05T03:43:41.888Z,98174.99
2018-09-05T03:46:11.977Z,98180.82
2018-09-05T03:48:42.186Z,98177.95
2018-09-05T03:51:12.452Z,98180.23
2018-09-05T03:53:43.677Z,98182.37
2018-09-05T03:56:14.096Z,98190.25
2018-09-05T03:58:44.593Z,98186.67
2018-09-05T04:01:15.963Z,98185.45
2018-09-05T04:03:46.047Z,98190.38
2018-09-05T04:06:22.476Z,98183.66
2018-09-05T04:08:53.312Z,98192.48
2018-09-05T04:11:23.426Z,98193.47
2018-09-05T04:13:53.541Z,98192.38
2018-09-05T04:16:23.341Z,98189.86
2018-09-05T04:18:53.089Z,98192.77
2018-09-05T04:21:22.971Z,98193.09
2018-09-05T04:23:53.427Z,98191.91
2018-09-05T04:26:23.345Z,98188.91
2018-09-05T04:28:53.245Z,98190.08
2018-09-05T04:31:23.763Z,98182.69
2018-09-05T04:33:53.756Z,98187.22
2018-09-05T04:36:23.844Z,98191.52
2018-09-05T04:38:53.523Z,98186.73
2018-09-05T04:41:23.534Z,98194.37
2018-09-05T04:43:53.286Z,98191.97
2018-09-05T04:46:23.019Z,98187.88
2018-09-05T04:48:52.754Z,98187.17
2018-09-05T04:51:22.399Z,98197.45
2018-09-05T04:53:52.786Z,98200.67
2018-09-05T04:56:23.142Z,98195.88
2018-09-05T04:58:54.180Z,98198.37
2018-09-05T05:01:23.906Z,98205.31
2018-09-05T05:03:53.896Z,98199.59
2018-09-05T05:07:11.653Z,98207.57
2018-09-05T05:09:41.805Z,98204.59
2018-09-05T05:12:11.726Z,98209.58
2018-09-05T05:14:44.078Z,98212.81
2018-09-05T05:17:14.640Z,98220.23
2018-09-05T05:19:45.109Z,98218.31
2018-09-05T05:22:14.881Z,98222.88
2018-09-05T05:24:45.243Z,98223.73
2018-09-05T05:27:14.963Z,98225.41
2018-09-05T05:29:45.647Z,98231.56
2018-09-05T05:32:15.474Z,98229.03
2018-09-05T05:34:45.682Z,98233.46
2018-09-05T05:38:21.693Z,98230.48
2018-09-05T05:40:51.901Z,98234.55
2018-09-05T05:43:21.940Z,98233.75
2018-09-05T05:45:55.518Z,98241.53
2018-09-05T06:00:36.220Z,98242.61
2018-09-05T06:03:07.235Z,98245.63
2018-09-05T06:08:43.283Z,98251.67
2018-09-05T06:17:13.302Z,98251.56
2018-09-05T06:19:43.578Z,98248.08
2018-09-05T06:22:14.167Z,98250.84
2018-09-05T06:24:46.809Z,98258.84
2018-09-05T06:27:20.519Z,98252.27
2018-09-05T06:29:51.542Z,98255.95
2018-09-05T06:32:25.489Z,98258.92
2018-09-05T06:34:57.042Z,98252.78
2018-09-05T06:37:28.392Z,98254.55
2018-09-05T06:40:01.197Z,98255.53
2018-09-05T06:42:31.424Z,98258.38
2018-09-05T06:45:02.446Z,98254.84
2018-09-05T06:47:32.996Z,98251.67
2018-09-05T06:50:03.935Z,98254.36
2018-09-05T06:52:35.476Z,98252.46
2018-09-05T06:55:13.049Z,98253.92
2018-09-05T06:57:43.936Z,98255.31
2018-09-05T07:00:17.367Z,98256.16
2018-09-05T07:02:52.821Z,98255.44
2018-09-05T07:05:40.609Z,98257.29
2018-09-05T07:08:19.122Z,98249.50
2018-09-05T07:10:51.122Z,98254.89
2018-09-05T07:13:29.080Z,98256.81
2018-09-05T07:18:59.731Z,98259.81
2018-09-05T07:21:34.602Z,98266.38
2018-09-05T07:24:15.089Z,98258.42
2018-09-05T07:26:45.270Z,98265.44
2018-09-05T07:29:15.860Z,98266.19
2018-09-05T07:31:48.053Z,98269.38
2018-09-05T07:34:19.942Z,98265.16
2018-09-05T07:36:53.935Z,98270.58
2018-09-05T07:39:34.412Z,98269.69
2018-09-05T07:42:07.614Z,98277.20
2018-09-05T07:44:39.131Z,98277.84
2018-09-05T07:47:14.901Z,98279.72
2018-09-05T07:49:48.344Z,98283.16
2018-09-05T07:52:19.346Z,98289.73
2018-09-05T07:54:51.494Z,98283.32
2018-09-05T07:57:27.354Z,98288.13
2018-09-05T07:59:58.118Z,98290.81
2018-09-05T08:02:46.100Z,98296.83
2018-09-05T08:05:22.064Z,98295.08
2018-09-05T08:07:52.664Z,98292.14
2018-09-05T08:10:23.935Z,98296.71
2018-09-05T08:13:00.709Z,98293.95
2018-09-05T08:15:34.098Z,98294.80
2018-09-05T08:18:06.576Z,98295.72
2018-09-05T08:20:37.419Z,98297.94
2018-09-05T08:23:08.499Z,98301.06
2018-09-05T08:25:41.799Z,98293.24
2018-09-05T08:28:15.809Z,98293.34
2018-09-05T08:30:47.380Z,98294.31
2018-09-05T08:33:21.803Z,98292.94
2018-09-05T08:35:56.494Z,98292.00
2018-09-05T08:38:29.458Z,98292.66
2018-09-05T08:41:07.754Z,98295.06
2018-09-05T08:43:42.946Z,98298.61
2018-09-05T08:46:13.366Z,98302.02
2018-09-05T08:48:47.909Z,98299.84
2018-09-05T08:51:20.432Z,98303.26
2018-09-05T08:54:17.470Z,98307.63
2018-09-05T08:56:51.093Z,98310.05
2018-09-05T08:59:23.177Z,98304.91
2018-09-05T09:02:02.471Z,98305.66
2018-09-05T09:04:33.600Z,98300.22
2018-09-05T09:07:12.190Z,98306.51
2018-09-05T09:10:01.935Z,98299.52
2018-09-05T09:37:39.135Z,98283.84
2018-09-05T09:43:17.348Z,98272.02
2018-09-05T09:45:52.417Z,98265.95
2018-09-05T09:48:24.788Z,98263.80
2018-09-05T09:51:03.281Z,98270.64
2018-09-05T09:53:52.671Z,98258.75
2018-09-05T10:02:28.169Z,98246.53
2018-09-05T10:13:42.874Z,98245.28
2018-09-05T10:22:34.402Z,98239.14
2018-09-05T10:25:17.635Z,98236.77
2018-09-05T10:28:02.612Z,98234.22
2018-09-05T10:30:44.737Z,98227.44
2018-09-05T10:33:29.168Z,98219.59
2018-09-05T10:36:31.264Z,98214.12
2018-09-05T10:39:05.543Z,98211.52
2018-09-05T10:41:51.290Z,98207.56
2018-09-05T11:27:36.016Z,98171.98
2018-09-05T11:30:25.862Z,98177.59
2018-09-05T11:35:51.637Z,98164.06
2018-09-05T11:38:23.498Z,98154.17
2018-09-05T11:46:48.575Z,98156.52
2018-09-05T12:01:25.697Z,98147.00
2018-09-05T12:04:27.267Z,98140.19
2018-09-05T12:07:13.907Z,98147.84
2018-09-05T12:15:43.130Z,98136.55
2018-09-05T12:18:28.818Z,98137.31
2018-09-05T12:21:07.220Z,98134.05
2018-09-05T12:23:48.090Z,98129.59
2018-09-05T12:26:23.335Z,98128.14
2018-09-05T12:28:54.721Z,98119.97
2018-09-05T12:31:26.715Z,98122.66
2018-09-05T12:33:58.040Z,98123.36
2018-09-05T12:36:31.172Z,98118.63
2018-09-05T12:39:06.097Z,98108.87
2018-09-05T12:41:38.991Z,98114.45
2018-09-05T12:44:22.655Z,98106.14
2018-09-05T12:46:55.283Z,98104.58
2018-09-05T12:49:47.552Z,98108.87
2018-09-05T12:52:18.021Z,98102.23
2018-09-05T13:10:11.242Z,98101.66
2018-09-05T13:18:15.323Z,98088.56
2018-09-05T13:20:46.959Z,98089.02
2018-09-05T13:23:19.809Z,98082.84
2018-09-05T13:25:54.706Z,98082.89
2018-09-05T13:28:27.948Z,98083.41
2018-09-05T13:31:07.241Z,98080.94
2018-09-05T13:33:42.382Z,98087.05
2018-09-05T13:40:36.560Z,98086.70
2018-09-05T13:43:13.778Z,98078.38
2018-09-05T13:45:46.761Z,98079.03
2018-09-05T13:48:19.483Z,98070.05
2018-09-05T13:50:56.676Z,98079.55
2018-09-05T13:53:50.067Z,98074.70
2018-09-05T13:59:06.635Z,98079.30
2018-09-05T14:01:44.447Z,98061.98
2018-09-05T14:04:19.437Z,98061.86
2018-09-05T14:15:56.266Z,98054.14
2018-09-05T14:22:24.008Z,98056.13
2018-09-05T14:24:54.675Z,98056.02
2018-09-05T14:27:30.863Z,98056.41
2018-09-05T14:30:01.438Z,98063.06
2018-09-05T14:32:42.330Z,98069.11
2018-09-05T14:35:12.583Z,98059.33
2018-09-05T14:40:23.157Z,98063.00
2018-09-05T14:43:01.364Z,98070.41
2018-09-05T14:45:41.153Z,98066.29
2018-09-05T14:48:12.866Z,98067.84
2018-09-05T14:50:45.664Z,98061.71
2018-09-05T14:53:21.650Z,98064.20
2018-09-05T14:55:53.543Z,98067.55
2018-09-05T14:58:25.845Z,98067.41
2018-09-05T15:00:58.154Z,98057.55
2018-09-05T15:03:27.983Z,98060.39
2018-09-05T15:06:00.759Z,98041.51
2018-09-05T15:08:31.455Z,98034.09
2018-09-05T15:11:10.032Z,98036.15
2018-09-05T15:13:41.968Z,98039.78
2018-09-05T15:18:48.525Z,98027.45
2018-09-05T15:21:25.846Z,98021.05
2018-09-05T15:23:57.873Z,98023.27
2018-09-05T15:26:29.168Z,98031.60
2018-09-05T15:28:59.747Z,98029.80
2018-09-05T15:31:32.065Z,98027.66
2018-09-05T15:34:08.916Z,98013.00
2018-09-05T15:36:39.676Z,98011.35
2018-09-05T15:39:17.805Z,98008.95
2018-09-05T15:41:49.234Z,98008.73
2018-09-05T15:44:20.881Z,98019.23
2018-09-05T15:46:58.379Z,98014.94
2018-09-05T15:49:29.319Z,98008.25
2018-09-05T15:52:06.424Z,98007.94
2018-09-05T15:54:43.474Z,98009.73
2018-09-05T15:57:14.004Z,98007.70
2018-09-05T15:59:47.964Z,98000.39
2018-09-05T16:02:20.296Z,98006.38
2018-09-05T16:04:52.817Z,98004.03
2018-09-05T16:07:23.318Z,97998.59
2018-09-05T16:09:54.370Z,97997.03
2018-09-05T16:12:30.475Z,97991.16
2018-09-05T16:15:02.185Z,97990.03
2018-09-05T16:17:38.756Z,97987.65
2018-09-05T16:20:10.477Z,97985.22
2018-09-05T16:22:40.808Z,97974.89
2018-09-05T16:25:15.508Z,97982.66
2018-09-05T16:27:47.424Z,97984.11
2018-09-05T16:30:19.527Z,97984.50
2018-09-05T16:32:51.073Z,97975.28
2018-09-05T16:35:22.735Z,97973.87
2018-09-05T16:37:53.441Z,97970.02
2018-09-05T16:40:24.276Z,97972.30
2018-09-05T16:42:58.147Z,97967.58
2018-09-05T16:45:34.247Z,97970.66
2018-09-05T16:48:08.577Z,97966.70
2018-09-05T16:53:32.219Z,97962.83
2018-09-05T16:56:06.129Z,97959.20
2018-09-05T16:58:52.553Z,97958.21
2018-09-05T17:01:26.242Z,97959.88
2018-09-05T17:03:58.808Z,97957.66
2018-09-05T17:06:34.363Z,97962.21
2018-09-05T17:09:09.182Z,97963.08
2018-09-05T17:11:44.114Z,97955.05
2018-09-05T17:17:20.011Z,97965.02
2018-09-05T17:20:00.513Z,97973.03
2018-09-05T17:22:35.971Z,97974.30
2018-09-05T17:25:20.930Z,97969.95
2018-09-05T17:27:58.284Z,97968.42
2018-09-05T17:30:36.490Z,97968.16
2018-09-05T17:35:50.347Z,97964.78
2018-09-05T17:38:28.886Z,97960.01
2018-09-05T17:41:06.124Z,97956.23
2018-09-05T17:46:17.870Z,97952.97
2018-09-05T17:48:55.578Z,97957.09
2018-09-05T17:51:32.471Z,97955.62
2018-09-05T17:54:21.236Z,97952.81
2018-09-05T17:57:05.315Z,97949.36
2018-09-05T17:59:45.015Z,97953.06
2018-09-05T18:02:23.264Z,97953.45
2018-09-05T18:07:50.833Z,97955.66
2018-09-05T18:10:23.493Z,97958.54
2018-09-05T18:13:02.862Z,97950.08
2018-09-05T18:15:37.961Z,97955.23
2018-09-05T18:18:25.982Z,97956.77
2018-09-05T18:21:06.292Z,97954.27
2018-09-05T18:23:44.438Z,97958.40
2018-09-05T18:26:29.045Z,97961.56
2018-09-05T18:29:10.656Z,97960.23
2018-09-05T18:31:41.385Z,97959.56
2018-09-05T18:38:33.842Z,97957.38
2018-09-05T18:41:08.823Z,97959.53
2018-09-05T18:43:45.480Z,97954.04
2018-09-05T18:46:19.635Z,97956.52
2018-09-05T18:48:57.363Z,97957.33
2018-09-05T18:51:35.467Z,97965.29
2018-09-05T18:54:16.438Z,97969.20
2018-09-05T18:59:51.944Z,97967.85
2018-09-05T19:11:34.437Z,97957.13
2018-09-05T19:14:09.363Z,97964.70
2018-09-05T19:16:41.515Z,97969.67
2018-09-05T19:19:21.839Z,97965.66
2018-09-05T19:21:57.812Z,97971.24
2018-09-05T19:27:53.650Z,97972.04
2018-09-05T19:33:46.365Z,97972.86
2018-09-05T19:38:00.465Z,97972.84
2018-09-05T19:40:45.756Z,97965.81
2018-09-05T19:43:18.523Z,97959.97
2018-09-05T19:45:51.516Z,97964.22
2018-09-05T19:48:23.292Z,97966.50
2018-09-05T19:51:00.305Z,97959.16
2018-09-05T19:53:33.336Z,97964.28
2018-09-05T19:56:04.817Z,97958.93
2018-09-05T19:58:37.162Z,97963.87
2018-09-05T20:01:15.436Z,97966.16
2018-09-05T20:03:48.029Z,97969.11
2018-09-05T20:09:09.438Z,97970.88
2018-09-05T20:15:21.604Z,97961.38
2018-09-05T20:17:53.469Z,97965.08
2018-09-05T20:20:29.385Z,97950.45
2018-09-05T20:23:01.400Z,97961.05
2018-09-05T20:25:39.216Z,97962.48
2018-09-05T20:28:10.812Z,97957.16
2018-09-05T20:30:42.765Z,97961.56
2018-09-05T20:33:14.213Z,97957.16
2018-09-05T20:35:45.034Z,97963.14
2018-09-05T20:38:18.921Z,97964.41
2018-09-05T20:40:52.364Z,97956.31
2018-09-05T20:43:25.768Z,97962.56
2018-09-05T20:46:14.011Z,97958.58
2018-09-05T20:54:55.246Z,97954.43
2018-09-05T20:57:40.916Z,97955.69
2018-09-05T21:00:13.507Z,97959.02
2018-09-05T21:02:45.468Z,97952.75
2018-09-05T21:05:18.437Z,97952.20
2018-09-05T21:07:57.068Z,97952.02
2018-09-05T21:10:27.925Z,97953.80
2018-09-05T21:13:20.948Z,97950.66
2018-09-05T21:15:54.467Z,97952.21
2018-09-05T21:18:26.179Z,97947.05
2018-09-05T21:21:05.959Z,97945.49
2018-09-05T21:23:39.640Z,97941.94
2018-09-05T21:26:15.788Z,97938.75
2018-09-05T21:28:47.523Z,97935.48
2018-09-05T21:31:31.379Z,97929.77
2018-09-05T21:34:11.373Z,97934.70
2018-09-05T21:36:43.451Z,97941.61
2018-09-05T21:40:14.732Z,97943.42
2018-09-05T21:45:53.471Z,97949.95
2018-09-05T21:48:31.074Z,97945.78
2018-09-05T21:51:14.451Z,97943.22
2018-09-05T21:53:52.612Z,97943.70
2018-09-05T21:56:34.691Z,97944.84
2018-09-05T21:59:09.378Z,97946.89
2018-09-05T22:01:49.465Z,97952.88
2018-09-05T22:04:24.658Z,97952.33
2018-09-05T22:06:54.645Z,97955.53
2018-09-05T22:09:24.823Z,97955.73
2018-09-05T22:12:03.005Z,97951.23
2018-09-05T22:14:45.103Z,97952.48
2018-09-05T22:17:18.089Z,97963.16
2018-09-05T22:19:52.217Z,97965.40
2018-09-05T22:22:24.130Z,97966.77
2018-09-05T22:27:56.820Z,97964.36
2018-09-05T22:30:30.400Z,97968.25
2018-09-05T22:39:40.272Z,97966.24
2018-09-05T22:42:12.649Z,97949.97
2018-09-05T22:44:54.500Z,97951.41
2018-09-05T22:47:37.543Z,97945.24
2018-09-05T22:50:25.112Z,97950.45
2018-09-05T22:53:48.195Z,97951.36
2018-09-05T22:59:28.648Z,97949.75
2018-09-05T23:02:19.525Z,97942.91
2018-09-05T23:07:04.040Z,97941.54
2018-09-05T23:09:47.431Z,97940.89
2018-09-05T23:12:27.948Z,97936.52
2018-09-05T23:15:09.597Z,97936.78
2018-09-05T23:18:47.812Z,97933.09
2018-09-05T23:21:26.003Z,97934.57
2018-09-05T23:24:01.692Z,97932.41
2018-09-05T23:26:32.071Z,97932.96
2018-09-05T23:29:03.994Z,97937.52
2018-09-05T23:31:33.660Z,97930.64
2018-09-05T23:34:03.954Z,97930.59
2018-09-05T23:36:33.860Z,97929.19
2018-09-05T23:39:06.020Z,97929.90
2018-09-05T23:41:36.560Z,97928.07
2018-09-05T23:44:06.303Z,97925.97
2018-09-05T23:46:37.349Z,97910.37
2018-09-05T23:49:07.085Z,97909.86
2018-09-05T23:51:36.794Z,97908.98
2018-09-05T23:54:07.425Z,97908.41
2018-09-05T23:56:37.166Z,97907.37
2018-09-05T23:59:08.065Z,97901.72
